• Join FlightAware (Why Join?)
  • Login
  • US Flag 
12:11PM EDT


 

Airport Tracker/Info


-or-


 

Live Flight TrackerFlight Track Log ✈ RPA3275 ✈ 12-May-2013 ✈ KPHL - KDTW

Flight Track Log - Related Links

Times and Time Zones

All times are in EDT time to prevent confusion due to time zone crossing. See the RPA3275 flight status page for this flight to view local times or setup timezone preferences in your user account.

Time Position Orientation Groundspeed Altitude Reporting Facility
EDT Latitude Longitude Course Direction KTS MPH feet Rate Location/Type
10:36AM 39.8667 -75.2833 270° West 148 170 800  Level Philadelphia TRACON
10:37AM 39.8500 -75.3333 247° West 191 220 2,400 1,980 Climbing Philadelphia TRACON
10:38AM 39.9000 -75.5042 270° West  Level FlightAware Approximate
10:38AM 39.8333 -75.4167 255° West 230 265 5,000  Level Philadelphia TRACON
10:39AM 39.9078 -75.6310 288° West  Level FlightAware Approximate
10:39AM 39.8500 -75.5000 285° West 233 268 7,900  Level Philadelphia TRACON
10:40AM 39.9019 -75.7555 258° West  Level FlightAware Approximate
10:41AM 39.9001 -75.8837 270° West  Level FlightAware Approximate
10:41AM 39.8606 -75.6956 274° West 279 321 12,500  Level New York Center
10:42AM 39.8692 -75.7908 277° West 284 327 14,600 2,520 Climbing New York Center
10:43AM 39.8789 -75.8997 277° West 290 334 17,500 2,520 Climbing New York Center
10:44AM 39.8953 -76.0039 282° West 290 334 19,600 1,800 Climbing New York Center
10:45AM 39.9006 -76.1153 274° West 300 345 21,200 1,500 Climbing New York Center
10:46AM 39.9111 -76.2053 279° West 305 351 22,600 1,680 Climbing New York Center
10:47AM 39.9108 -76.3461 270° West 323 372 24,700 1,740 Climbing New York Center
10:48AM 39.9175 -76.4683 274° West 336 387 26,200 1,440 Climbing New York Center
10:49AM 39.9281 -76.5911 276° West 341 392 27,600 1,200 Climbing New York Center
10:50AM 39.9389 -76.7139 277° West 346 398 28,600 1,080 Climbing New York Center
10:51AM 39.9531 -76.8450 278° West 354 407 29,800 660 Climbing New York Center
10:52AM 39.9631 -76.9733 276° West 360 414 30,000 60 Climbing New York Center
10:53AM 39.9750 -77.1017 277° West 360 414 30,000  Level New York Center
10:54AM 39.9872 -77.2219 278° West 354 407 30,000  Level New York Center
10:55AM 39.9989 -77.3506 277° West 354 407 30,000  Level New York Center
10:56AM 40.0106 -77.4764 277° West 354 407 30,000  Level New York Center
10:57AM 40.0247 -77.6278 277° West 359 413 30,000  Level Cleveland Center
10:58AM 40.0364 -77.7603 277° West 365 420 30,000  Level Cleveland Center
10:59AM 40.0478 -77.8925 276° West 365 420 30,000  Level Cleveland Center
11:00AM 40.0658 -78.0358 279° West 377 434 30,000  Level Cleveland Center
11:01AM 40.1103 -78.1697 293° West 392 451 30,000  Level Cleveland Center
11:02AM 40.1550 -78.3067 293° West 405 466 30,000  Level Cleveland Center
11:03AM 40.1992 -78.4411 293° West 410 472 30,000  Level Cleveland Center
11:04AM 40.2433 -78.5731 294° West 410 472 30,000  Level Cleveland Center
11:05AM 40.2894 -78.7078 294° West 410 472 30,000  Level Cleveland Center
11:06AM 40.3353 -78.8481 293° West 410 472 30,000  Level Cleveland Center
11:07AM 40.3811 -78.9831 294° West 410 472 30,000  Level Cleveland Center
11:08AM 40.4225 -79.1214 291° West 410 472 30,000  Level Cleveland Center
11:09AM 40.4661 -79.2594 293° West 410 472 30,000  Level Cleveland Center
11:10AM 40.5178 -79.4086 295° West 410 472 30,000  Level Cleveland Center
11:11AM 40.5628 -79.5472 293° West 410 472 30,000  Level Cleveland Center
11:12AM 40.6056 -79.6833 293° West 410 472 30,000  Level Cleveland Center
11:13AM 40.6503 -79.8222 293° West 410 472 30,000  Level Cleveland Center
11:14AM 40.6908 -79.9561 292° West 410 472 30,000  Level Cleveland Center
11:15AM 40.7289 -80.0761 293° West 410 472 30,000  Level Cleveland Center
11:16AM 40.7711 -80.2131 292° West 410 472 30,000  Level Cleveland Center
11:17AM 40.8111 -80.3444 292° West 404 465 30,000  Level Cleveland Center
11:18AM 40.8572 -80.4897 293° West 398 458 30,000  Level Cleveland Center
11:19AM 40.8947 -80.6078 293° West 391 450 30,000  Level Cleveland Center
11:20AM 40.9342 -80.7369 292° West 391 450 30,000  Level Cleveland Center
11:21AM 40.9778 -80.8719 293° West 391 450 30,000  Level Cleveland Center
11:22AM 41.0253 -81.0014 296° West 391 450 30,000  Level Cleveland Center
11:23AM 41.0789 -81.1450 296° West 396 456 30,000  Level Cleveland Center
11:24AM 41.1325 -81.2722 299° West 396 456 30,000  Level Cleveland Center
11:25AM 41.1817 -81.3942 298° West 384 442 30,000  Level Cleveland Center
11:26AM 41.2308 -81.5081 300° West 384 442 30,000 -480 Level Cleveland Center
11:27AM 41.2797 -81.6331 298° West 384 442 29,100 -1,440 Descending Cleveland Center
11:28AM 41.3264 -81.7556 297° West 384 442 27,200 -1,860 Descending Cleveland Center
11:29AM 41.3733 -81.8669 299° West 365 420 25,400 -1,860 Descending Cleveland Center
11:30AM 41.4175 -81.9925 295° West 344 396 23,500 -1,800 Descending Cleveland Center
11:31AM 41.4600 -82.0986 298° West 333 383 21,800 -1,680 Descending Cleveland Center
11:32AM 41.5003 -82.2050 297° West 328 377 20,200 -1,680 Descending Cleveland Center
11:33AM 41.5425 -82.3089 299° West 328 377 18,500 -1,680 Descending Cleveland Center
11:34AM 41.5728 -82.3844 298° West 323 372 17,400 -1,740 Descending Cleveland Center
11:34AM 41.5825 -82.4153 293° West 328 377 16,800 -1,800 Descending Cleveland Center
11:35AM 41.6167 -82.4969 299° West 325 374 15,600 -1,440 Descending Cleveland Center
11:35AM 41.6206 -82.5108 291° West 328 377 15,400 -1,620 Descending Cleveland Center
11:36AM 41.6544 -82.6008 297° West 315 362 14,000 -1,800 Descending Cleveland Center
11:36AM 41.6644 -82.6261 298° West 328 377 13,600 -1,620 Descending Cleveland Center
11:37AM 41.7022 -82.7275 297° West 322 371 12,000 -960 Descending Cleveland Center
11:38AM 41.7406 -82.8011 305° West 308 354 12,000  Level Cleveland Center
11:38AM 41.7547 -82.8183 318° Northwest 312 359 12,000  Level Cleveland Center
11:39AM 41.8056 -82.8758 320° Northwest 308 354 12,000  Level Cleveland Center
11:40AM 41.8686 -82.9533 318° Northwest 308 354 12,000  Level Cleveland Center
11:41AM 41.9256 -83.0225 318° Northwest 287 330 12,000 -540 Level Cleveland Center
11:42AM 41.9867 -83.0917 320° Northwest 251 289 11,000 -540 Descending Cleveland Center
11:43AM 42.0375 -83.1581 316° Northwest 256 295 11,000  Level Cleveland Center
11:44AM 42.0989 -83.2053 330° Northwest 261 300 11,000 -900 Level Cleveland Center
11:45AM 42.1672 -83.2278 346° North 268 308 9,200 -1,740 Descending Cleveland Center
11:46AM 42.2367 -83.1942 20° North 274 315 7,500 -1,740 Descending Cleveland Center
11:47AM 42.3083 -83.1633 18° North 261 300 5,700 -1,140 Descending Cleveland Center
11:48AM 42.3636 -83.2022 333° Northwest 214 246 5,200 -600 Descending Cleveland Center
11:49AM 42.3456 -83.2661 249° West 197 227 4,600 -1,080 Descending Cleveland Center
11:50AM 42.3028 -83.3092 217° Southwest 185 213 3,100 -1,500 Descending Cleveland Center